Polaris Voyager — C6AP4 — position and weather

sailwx.info

Track history (hours):
 
Tides and Currents Weather Stations Pressure Air Temp Water Temp Dewpoint Dewpoint Depression Visibility Wind Speed Wind Dir Waves Ship Positions

Polaris Voyager

Last reported at 2018-Feb-18 13:58 UTC. Time now 2018-Feb-19 00:06 UTC.
Position N 36°22' W 123°05'.

Length 276 m; draft 14.1 m.

Type: Ship (hazmat cat A). MMSI: 311000112.

Date/timePositionNaut miles runAvg speedWind from/ knotsBaromVisibWave heightAir tempDewpointWater temp
2018-Feb-18 13:58N 36°22' W 123°05'8413.2
2018-Feb-18 07:35N 35°09' W 122°12'113.2
2018-Feb-18 07:30N 35°08' W 122°12'1812.1
2018-Feb-18 06:03N 34°55' W 121°57'113.8
2018-Feb-18 06:00N 34°55' W 121°57'713.4
2018-Feb-18 05:30N 34°49' W 121°52'713.8
2018-Feb-18 05:01N 34°44' W 121°47'714.0
2018-Feb-18 04:31N 34°39' W 121°41'714.0
2018-Feb-18 04:01N 34°34' W 121°35'714.0
2018-Feb-18 03:30N 34°30' W 121°28'713.3
2018-Feb-18 03:00N 34°24' W 121°24'713.5
2018-Feb-18 02:30N 34°17' W 121°21'714.1
2018-Feb-18 02:00N 34°12' W 121°16'814.0
2018-Feb-18 01:28N 34°06' W 121°10'714.1
2018-Feb-18 01:00N 34°01' W 121°05'814.2
2018-Feb-18 00:28N 33°55' W 120°60'614.1
2018-Feb-18 00:00N 33°50' W 120°55'714.2
2018-Feb-17 23:30N 33°44' W 120°50'714.4
2018-Feb-17 23:00N 33°38' W 120°45'714.2
2018-Feb-17 22:30N 33°33' W 120°39'713.5
2018-Feb-17 22:00N 33°31' W 120°31'713.9
2018-Feb-17 21:30N 33°32' W 120°23'814.4
2018-Feb-17 20:59N 33°34' W 120°14'714.6
2018-Feb-17 20:30N 33°35' W 120°06'715.0
2018-Feb-17 20:00N 33°36' W 119°57'815.0
2018-Feb-17 19:30N 33°37' W 119°48'815.8
2018-Feb-17 19:00N 33°38' W 119°38'815.4
2018-Feb-17 18:29N 33°40' W 119°29'915.2
2018-Feb-17 17:52N 33°41' W 119°18'614.5
2018-Feb-17 17:29N 33°42' W 119°11'612.6
2018-Feb-17 17:00N 33°43' W 119°04'611.6
2018-Feb-17 16:30N 33°44' W 118°57'611.5
2018-Feb-17 16:00N 33°45' W 118°50'611.3
2018-Feb-17 15:30N 33°45' W 118°44'611.2
2018-Feb-17 15:00N 33°50' W 118°39'611.5
2018-Feb-17 14:30N 33°53' W 118°34'5 9.2
2018-Feb-17 13:58N 33°54' W 118°28'1 0.0
2018-Feb-16 20:45N 33°54' W 118°27'0 0.2
2018-Feb-16 20:30N 33°54' W 118°27'1 1.7
2018-Feb-16 19:57N 33°53' W 118°28'2 2.4
2018-Feb-16 19:04N 33°52' W 118°30'0 0.3
2018-Feb-16 18:55N 33°52' W 118°30'0 0.1
2018-Feb-16 18:26N 33°52' W 118°30'0 0.2
2018-Feb-16 17:59N 33°52' W 118°30'2 3.8
2018-Feb-16 17:28N 33°50' W 118°31'4 8.0
2018-Feb-16 17:00N 33°47' W 118°32'2 4.2
2018-Feb-16 16:30N 33°45' W 118°31'4 7.4
2018-Feb-16 15:59N 33°42' W 118°28'4 8.3
2018-Feb-16 15:29N 33°40' W 118°24'4 7.7
2018-Feb-16 15:00N 33°38' W 118°20'510.5
2018-Feb-16 14:30N 33°38' W 118°13'4 7.8
2018-Feb-16 14:00N 33°42' W 118°11'2 4.1
2018-Feb-16 13:30N 33°44' W 118°12'0 0.2
2018-Feb-16 13:00N 33°44' W 118°12'0 0.1
2018-Feb-16 12:26N 33°44' W 118°12'0 0.0
2018-Feb-16 11:59N 33°44' W 118°12'0 0.0
2018-Feb-16 11:17N 33°44' W 118°12'0 0.0
2018-Feb-16 10:59N 33°44' W 118°12'0 0.0
2018-Feb-16 10:26N 33°44' W 118°12'0 0.0
2018-Feb-16 09:59N 33°44' W 118°12'0 0.0
2018-Feb-16 09:23N 33°44' W 118°12'0 0.1
2018-Feb-16 08:56N 33°44' W 118°12'0 0.1
2018-Feb-16 08:29N 33°44' W 118°12'0 0.0
2018-Feb-16 07:56N 33°44' W 118°12'0 0.0
2018-Feb-16 07:29N 33°44' W 118°12'0 0.1
2018-Feb-16 06:59N 33°44' W 118°12'0 0.0
2018-Feb-16 06:29N 33°44' W 118°12'0 0.1
2018-Feb-16 05:59N 33°44' W 118°12'0 0.0
2018-Feb-16 05:26N 33°44' W 118°12'0 0.0
2018-Feb-16 04:53N 33°44' W 118°12'0 0.1
2018-Feb-16 04:29N 33°44' W 118°12'0 0.0
2018-Feb-16 03:56N 33°44' W 118°12'0 0.0
2018-Feb-16 03:29N 33°44' W 118°12'0 0.0
2018-Feb-16 02:56N 33°44' W 118°12'0 0.0
2018-Feb-16 02:29N 33°44' W 118°12'0 0.1
2018-Feb-16 01:59N 33°44' W 118°12'0 0.1
2018-Feb-16 01:29N 33°44' W 118°12'0 0.1
2018-Feb-16 00:59N 33°44' W 118°12'0 0.0
2018-Feb-16 00:29N 33°44' W 118°12'0 0.0
2018-Feb-15 23:59N 33°44' W 118°12'0 0.0
2018-Feb-15 23:29N 33°44' W 118°12'0 0.0
2018-Feb-15 22:59N 33°44' W 118°12'0 0.1
2018-Feb-15 22:29N 33°44' W 118°12'0 0.0
2018-Feb-15 21:59N 33°44' W 118°12'0 0.0
2018-Feb-15 21:29N 33°44' W 118°12'0 0.0
2018-Feb-15 20:59N 33°44' W 118°12'0 0.0
2018-Feb-15 20:29N 33°44' W 118°12'0 0.1
2018-Feb-15 20:00N 33°44' W 118°12'1 2.9
2018-Feb-15 19:30N 33°43' W 118°11'3 5.8
2018-Feb-15 19:00N 33°40' W 118°11'611.0
2018-Feb-15 18:30N 33°34' W 118°09'611.8
2018-Feb-15 18:00N 33°29' W 118°07'1311.9
2018-Feb-15 16:56N 33°17' W 118°01'611.8
2018-Feb-15 16:28N 33°12' W 117°57'511.1
2018-Feb-15 15:59N 33°08' W 117°54'2 3.0
2018-Feb-15 15:28N 33°07' W 117°52'0 0.5
2018-Feb-15 15:00N 33°07' W 117°52'1 1.4
2018-Feb-15 14:30N 33°06' W 117°52'1 1.3
2018-Feb-15 14:00N 33°06' W 117°51'0 0.7
2018-Feb-15 13:30N 33°05' W 117°51'0 0.9
2018-Feb-15 13:00N 33°05' W 117°51'0 0.9
2018-Feb-15 12:30N 33°04' W 117°51'0 1.0
2018-Feb-15 11:59N 33°04' W 117°51'1 1.0
2018-Feb-15 11:30N 33°04' W 117°50'1 1.1
2018-Feb-15 11:00N 33°03' W 117°50'1 1.2
2018-Feb-15 10:30N 33°02' W 117°50'1 1.4
2018-Feb-15 10:00N 33°02' W 117°50'1 1.4
2018-Feb-15 09:31N 33°01' W 117°50'1 1.3
2018-Feb-15 09:00N 33°01' W 117°49'1 1.1
2018-Feb-15 08:30N 33°00' W 117°49'1 1.2
2018-Feb-15 08:01N 32°59' W 117°49'1 1.1
2018-Feb-15 07:30N 32°59' W 117°48'0 1.0
2018-Feb-15 07:00N 32°59' W 117°48'1 1.0
2018-Feb-15 06:30N 32°58' W 117°48'1 1.0
2018-Feb-15 06:00N 32°58' W 117°48'1 1.1
2018-Feb-15 05:29N 32°57' W 117°47'0 1.0
2018-Feb-15 05:00N 32°57' W 117°47'0 0.9
2018-Feb-15 04:30N 32°56' W 117°47'1 1.1
2018-Feb-15 04:00N 32°56' W 117°47'1 1.4
2018-Feb-15 03:29N 32°55' W 117°46'1 1.5
2018-Feb-15 03:00N 32°54' W 117°46'1 1.5
2018-Feb-15 02:31N 32°54' W 117°46'1 1.4
2018-Feb-15 02:00N 32°53' W 117°45'1 1.4
2018-Feb-15 01:31N 32°52' W 117°45'1 1.2
2018-Feb-15 01:00N 32°52' W 117°45'1 1.3
2018-Feb-15 00:30N 32°51' W 117°45'0 0.9
2018-Feb-15 00:00N 32°51' W 117°44'1 1.4
2018-Feb-14 23:30N 32°51' W 117°45'1 1.4
2018-Feb-14 23:00N 32°51' W 117°46'1 1.1
2018-Feb-14 22:30N 32°52' W 117°46'1 1.1
2018-Feb-14 22:00N 32°52' W 117°47'1 1.2
2018-Feb-14 21:31N 32°53' W 117°47'1 1.4
2018-Feb-14 21:00N 32°53' W 117°48'1 1.3
2018-Feb-14 20:30N 32°54' W 117°48'1 1.3
2018-Feb-14 20:00N 32°54' W 117°49'1 1.3
2018-Feb-14 19:30N 32°55' W 117°49'1 1.3
2018-Feb-14 19:00N 32°56' W 117°49'1 1.2
2018-Feb-14 18:30N 32°56' W 117°50'1 1.1
2018-Feb-14 18:00N 32°57' W 117°50'1 1.1
2018-Feb-14 17:31N 32°57' W 117°50'1 1.1
2018-Feb-14 17:01N 32°58' W 117°50'1 1.1
2018-Feb-14 16:29N 32°58' W 117°50'1 1.1
2018-Feb-14 16:00N 32°59' W 117°51'1 1.0
2018-Feb-14 15:30N 32°59' W 117°51'1 1.2
2018-Feb-14 15:00N 32°60' W 117°51'1 2.1
2018-Feb-14 14:30N 33°01' W 117°52'2 3.0
2018-Feb-14 14:00N 33°02' W 117°52'2 4.4
2018-Feb-14 13:31N 33°04' W 117°54'3 5.1
2018-Feb-14 13:00N 33°06' W 117°55'2 4.7
2018-Feb-14 12:30N 33°08' W 117°57'3 6.5
2018-Feb-14 12:00N 33°11' W 117°59'0 0.6
2018-Feb-14 11:30N 33°11' W 117°60'0 0.9
2018-Feb-14 11:00N 33°11' W 117°60'5 9.7
2018-Feb-14 10:30N 33°11' W 118°05'5 9.7
2018-Feb-14 10:00N 33°11' W 118°11'3710.9
2018-Feb-14 06:36N 33°15' W 118°55'913.2
2018-Feb-14 05:57N 33°15' W 119°06'614.0
2018-Feb-14 05:31N 33°18' W 119°12'1215.6
2018-Feb-14 04:43N 33°28' W 119°22'316.0
2018-Feb-14 04:30N 33°30' W 119°25'815.7
2018-Feb-14 04:00N 33°34' W 119°33'815.8
2018-Feb-14 03:31N 33°35' W 119°42'815.5
2018-Feb-14 03:01N 33°36' W 119°51'815.1
2018-Feb-14 02:30N 33°37' W 120°00'815.2
2018-Feb-14 02:00N 33°38' W 120°09'714.6
2018-Feb-14 01:29N 33°40' W 120°18'715.0
2018-Feb-14 01:00N 33°43' W 120°26'815.4
2018-Feb-14 00:31N 33°47' W 120°34'815.1
2018-Feb-14 00:00N 33°51' W 120°42'715.0
2018-Feb-13 23:31N 33°55' W 120°49'714.9
2018-Feb-13 23:00N 34°01' W 120°54'714.7
2018-Feb-13 22:31N 34°08' W 120°58'714.7
2018-Feb-13 22:00N 34°14' W 121°03'815.1
2018-Feb-13 21:31N 34°21' W 121°07'815.3
2018-Feb-13 21:01N 34°27' W 121°12'18015.4
2018-Feb-13 09:18N 37°06' W 122°57'514.8
2018-Feb-13 08:59N 37°10' W 122°59'815.7
2018-Feb-13 08:28N 37°18' W 123°02'715.6
2018-Feb-13 08:00N 37°25' W 123°05'715.1
2018-Feb-13 07:31N 37°32' W 123°05'713.3
2018-Feb-13 07:01N 37°37' W 122°59'714.5
2018-Feb-13 06:30N 37°41' W 122°51'714.0
2018-Feb-13 06:00N 37°45' W 122°44'5 9.4
2018-Feb-13 05:30N 37°46' W 122°38'611.7
2018-Feb-13 05:00N 37°48' W 122°31'510.6
2018-Feb-13 04:30N 37°51' W 122°25'4 8.4
2018-Feb-13 04:00N 37°55' W 122°25'1 1.9
2018-Feb-13 03:30N 37°56' W 122°25'0 0.0
2018-Feb-13 02:57N 37°56' W 122°25'0 0.0
2018-Feb-13 02:30N 37°56' W 122°25'0 0.0
2018-Feb-13 02:00N 37°56' W 122°25'0 0.0
2018-Feb-13 01:30N 37°56' W 122°25'0 0.0
2018-Feb-13 01:00N 37°56' W 122°25'0 0.0
2018-Feb-13 00:30N 37°56' W 122°25'0 0.0
2018-Feb-13 00:00N 37°56' W 122°25'0 0.0
2018-Feb-12 23:30N 37°56' W 122°25'0 0.0
2018-Feb-12 23:00N 37°56' W 122°25'0 0.0
2018-Feb-12 22:30N 37°56' W 122°25'0 0.0
2018-Feb-12 22:00N 37°56' W 122°25'0 0.0
2018-Feb-12 21:30N 37°56' W 122°25'0 0.0
2018-Feb-12 21:00N 37°56' W 122°25'0 0.0
2018-Feb-12 20:30N 37°56' W 122°25'0 0.0
2018-Feb-12 20:00N 37°56' W 122°25'0 0.0
2018-Feb-12 19:30N 37°56' W 122°25'0 0.0
2018-Feb-12 18:54N 37°56' W 122°25'0 0.0
2018-Feb-12 18:30N 37°56' W 122°25'0 0.0
2018-Feb-12 17:57N 37°56' W 122°25'0 0.0
2018-Feb-12 17:30N 37°56' W 122°25'0 0.0
2018-Feb-12 17:00N 37°56' W 122°25'0 0.0
2018-Feb-12 16:30N 37°56' W 122°25'0 0.0
2018-Feb-12 16:00N 37°56' W 122°25'0 0.0
2018-Feb-12 15:18N 37°56' W 122°25'0 0.0
2018-Feb-12 15:00N 37°56' W 122°25'0 0.0
2018-Feb-12 14:27N 37°56' W 122°25'0 0.0
2018-Feb-12 14:00N 37°56' W 122°25'0 0.0
2018-Feb-12 13:30N 37°56' W 122°25'0 0.0
2018-Feb-12 13:00N 37°56' W 122°25'0 0.0
2018-Feb-12 12:30N 37°56' W 122°25'0 0.0
2018-Feb-12 12:00N 37°56' W 122°25'0 0.0
2018-Feb-12 11:30N 37°56' W 122°25'0 0.0
2018-Feb-12 11:00N 37°56' W 122°25'0 0.0
2018-Feb-12 10:30N 37°56' W 122°25'0 0.0
2018-Feb-12 10:00N 37°56' W 122°25'0 0.0
2018-Feb-12 09:30N 37°56' W 122°25'0 0.0
2018-Feb-12 09:00N 37°56' W 122°25'0 0.0
2018-Feb-12 08:30N 37°56' W 122°25'0 0.0
2018-Feb-12 08:00N 37°56' W 122°25'0 0.0
2018-Feb-12 07:30N 37°56' W 122°25'0 0.0
2018-Feb-12 07:00N 37°56' W 122°25'0 0.0
2018-Feb-12 06:27N 37°56' W 122°25'0 0.0
2018-Feb-12 06:00N 37°56' W 122°25'0 0.0
2018-Feb-12 05:30N 37°56' W 122°25'0 0.0
2018-Feb-12 05:00N 37°56' W 122°25'0 0.0
2018-Feb-12 04:27N 37°56' W 122°25'0 0.0
2018-Feb-12 04:00N 37°56' W 122°25'0 0.0
2018-Feb-12 03:30N 37°56' W 122°25'1 1.5
2018-Feb-12 03:00N 37°55' W 122°25'4 7.1
2018-Feb-12 02:30N 37°52' W 122°25'4 8.7
2018-Feb-12 02:00N 37°49' W 122°29'510.5
2018-Feb-12 01:30N 37°47' W 122°35'5 9.7
2018-Feb-12 01:00N 37°44' W 122°41'4 8.1
2018-Feb-12 00:30N 37°42' W 122°45'4 7.4
2018-Feb-12 00:00N 37°40' W 122°49'4 7.7
2018-Feb-11 23:30N 37°38' W 122°52'4 8.7
2018-Feb-11 23:00N 37°35' W 122°57'4 8.7
2018-Feb-11 22:30N 37°33' W 123°01'4 8.5
2018-Feb-11 22:00N 37°30' W 123°06'4 8.2
2018-Feb-11 21:30N 37°28' W 123°10'7 7.9
2018-Feb-11 20:36N 37°22' W 123°16'1 6.4
2018-Feb-11 20:30N 37°22' W 123°17'2 4.5
2018-Feb-11 20:00N 37°20' W 123°18'1 2.2
2018-Feb-11 19:28N 37°19' W 123°18'1 2.2
2018-Feb-11 18:52N 37°18' W 123°18'1 2.0
2018-Feb-11 18:30N 37°17' W 123°18'1 1.9
2018-Feb-11 17:49N 37°16' W 123°18'1 2.0
2018-Feb-11 17:23N 37°15' W 123°18'0 1.1
2018-Feb-11 17:00N 37°14' W 123°18'4 3.1
2018-Feb-11 15:52N 37°11' W 123°19'1 3.3
2018-Feb-11 15:30N 37°10' W 123°19'2 3.4
2018-Feb-11 15:00N 37°08' W 123°19'1 2.6
2018-Feb-11 14:30N 37°07' W 123°19'7 9.9
2018-Feb-11 13:50N 37°00' W 123°22'412.4
2018-Feb-11 13:30N 36°57' W 123°24'611.9
2018-Feb-11 13:00N 36°51' W 123°22'612.7
2018-Feb-11 12:30N 36°45' W 123°18'612.7
2018-Feb-11 12:00N 36°40' W 123°15'612.5
2018-Feb-11 11:30N 36°34' W 123°12'612.2
2018-Feb-11 11:00N 36°28' W 123°08'612.2
2018-Feb-11 10:30N 36°23' W 123°05'612.2
2018-Feb-11 10:00N 36°18' W 123°02'611.9
2018-Feb-11 09:30N 36°12' W 122°58'611.8
2018-Feb-11 09:01N 36°07' W 122°55'612.0
2018-Feb-11 08:30N 36°01' W 122°52'612.0
2018-Feb-11 08:00N 35°56' W 122°49'611.9
2018-Feb-11 07:30N 35°51' W 122°45'2111.5
2018-Feb-11 05:41N 35°32' W 122°34'511.1
2018-Feb-11 05:12N 35°27' W 122°31'310.8
2018-Feb-11 04:58N 35°25' W 122°29'511.2
2018-Feb-11 04:29N 35°20' W 122°26'510.9
2018-Feb-11 04:00N 35°16' W 122°22'611.5
2018-Feb-11 03:30N 35°11' W 122°18'711.3
2018-Feb-11 02:54N 35°06' W 122°14'511.7
2018-Feb-11 02:29N 35°02' W 122°10'611.7
2018-Feb-11 01:59N 34°57' W 122°06'611.7
2018-Feb-11 01:30N 34°52' W 122°02'612.3
2018-Feb-11 00:58N 34°47' W 121°57'712.6
2018-Feb-11 00:24N 34°42' W 121°52'512.7
2018-Feb-11 00:00N 34°38' W 121°48'612.4
2018-Feb-10 23:30N 34°33' W 121°43'612.3
2018-Feb-10 23:00N 34°28' W 121°38'612.3
2018-Feb-10 22:31N 34°24' W 121°33'612.2
2018-Feb-10 22:00N 34°19' W 121°29'612.4
2018-Feb-10 21:30N 34°14' W 121°24'713.0
2018-Feb-10 20:58N 34°09' W 121°18'613.3
2018-Feb-10 20:30N 34°05' W 121°12'713.5
2018-Feb-10 20:00N 34°02' W 121°05'713.8
2018-Feb-10 19:30N 33°58' W 120°58'713.8
2018-Feb-10 19:01N 33°55' W 120°51'713.8
2018-Feb-10 18:30N 33°51' W 120°44'713.8
2018-Feb-10 18:00N 33°47' W 120°37'714.1
2018-Feb-10 17:30N 33°43' W 120°30'714.5
2018-Feb-10 17:01N 33°40' W 120°22'814.9
2018-Feb-10 16:28N 33°38' W 120°13'715.2
2018-Feb-10 16:01N 33°36' W 120°05'815.1
2018-Feb-10 15:30N 33°35' W 119°56'815.4
2018-Feb-10 15:00N 33°35' W 119°47'715.0
2018-Feb-10 14:31N 33°35' W 119°38'714.6
2018-Feb-10 14:00N 33°32' W 119°30'715.1
2018-Feb-10 13:31N 33°28' W 119°22'815.3
2018-Feb-10 13:00N 33°22' W 119°16'815.4
2018-Feb-10 12:29N 33°16' W 119°10'713.8
2018-Feb-10 12:01N 33°14' W 119°02'913.9
2018-Feb-10 11:22N 33°14' W 118°52'411.6
2018-Feb-10 10:59N 33°14' W 118°46'611.6
2018-Feb-10 10:30N 33°13' W 118°40'611.7
2018-Feb-10 10:00N 33°11' W 118°33'611.6
2018-Feb-10 09:29N 33°08' W 118°27'611.6
2018-Feb-10 08:59N 33°06' W 118°21'911.4
2018-Feb-10 08:11N 33°06' W 118°10'311.5
2018-Feb-10 07:55N 33°06' W 118°06'511.7
2018-Feb-10 07:30N 33°06' W 118°00'5 9.1
2018-Feb-10 06:59N 33°06' W 117°55'4 8.0
2018-Feb-10 06:29N 33°07' W 117°50'0 0.6
2018-Feb-10 06:00N 33°07' W 117°50'0 0.9
2018-Feb-10 05:31N 33°07' W 117°51'1 1.2
2018-Feb-10 05:00N 33°06' W 117°50'0 0.9
2018-Feb-10 04:30N 33°06' W 117°50'1 1.1
2018-Feb-10 04:00N 33°05' W 117°50'1 1.2
2018-Feb-10 03:29N 33°05' W 117°49'1 1.2
2018-Feb-10 03:00N 33°04' W 117°49'1 1.3
2018-Feb-10 02:30N 33°04' W 117°48'1 1.5
2018-Feb-10 02:00N 33°03' W 117°48'1 1.9
2018-Feb-10 01:30N 33°02' W 117°47'1 1.9
2018-Feb-10 01:00N 33°01' W 117°47'1 1.0
2018-Feb-10 00:30N 33°01' W 117°46'1 1.1
2018-Feb-10 00:00N 33°01' W 117°46'1 1.2
2018-Feb-09 23:30N 33°00' W 117°45'1 1.0
2018-Feb-09 23:00N 32°60' W 117°45'0 1.1
2018-Feb-09 22:46N 32°60' W 117°45'1 0.9
2018-Feb-09 21:30N 32°59' W 117°44'2 1.0
2018-Feb-09 19:30N 32°57' W 117°42'3 1.3
2018-Feb-09 17:30N 32°57' W 117°45'1 1.0
2018-Feb-09 16:30N 32°57' W 117°47'1 1.4
2018-Feb-09 16:00N 32°57' W 117°47'2 1.3
2018-Feb-09 14:30N 32°57' W 117°50'1 0.7
2018-Feb-09 13:01N 32°58' W 117°51'1 0.7
2018-Feb-09 11:00N 32°59' W 117°51'4 2.2
2018-Feb-09 09:00N 33°03' W 117°53'2 4.8
2018-Feb-09 08:30N 33°05' W 117°55'2 4.8
2018-Feb-09 08:00N 33°07' W 117°56'3 5.4
2018-Feb-09 07:30N 33°10' W 117°58'2 4.8
2018-Feb-09 07:00N 33°12' W 117°59'0 0.3
2018-Feb-09 06:30N 33°12' W 117°60'0 0.5
2018-Feb-09 06:00N 33°11' W 117°60'0 0.2
2018-Feb-09 05:30N 33°11' W 117°60'5 4.6
2018-Feb-09 04:30N 33°11' W 118°05'611.8
2018-Feb-09 04:00N 33°11' W 118°12'611.8
2018-Feb-09 03:30N 33°11' W 118°19'1811.7
2018-Feb-09 02:00N 33°12' W 118°40'611.8
2018-Feb-09 01:30N 33°13' W 118°47'611.4
2018-Feb-09 01:00N 33°14' W 118°54'611.0
2018-Feb-09 00:30N 33°15' W 119°00'815.3
2018-Feb-09 00:00N 33°16' W 119°09'815.8
2018-Feb-08 23:30N 33°22' W 119°15'5315.1
2018-Feb-08 20:00N 33°37' W 120°16'2416.1
2018-Feb-08 18:30N 33°51' W 120°40'1515.5
2018-Feb-08 17:30N 34°01' W 120°53'4116.2
2018-Feb-08 15:00N 34°36' W 121°19'  
Track history (hours):
 
Tides and Currents Weather Stations Pressure Air Temp Water Temp Dewpoint Dewpoint Depression Visibility Wind Speed Wind Dir Waves Ship Positions

Polaris Voyager

Last reported at 2018-Feb-18 13:58 UTC. Time now 2018-Feb-19 00:06 UTC.
Position N 36°22' W 123°05'.

Length 276 m; draft 14.1 m.

Type: Ship (hazmat cat A). MMSI: 311000112.

Date/timePositionNaut miles runAvg speedWind from/ knotsBaromVisibWave heightAir tempDewpointWater temp
2018-Feb-18 13:58N 36°22' W 123°05'8413.2
2018-Feb-18 07:35N 35°09' W 122°12'113.2
2018-Feb-18 07:30N 35°08' W 122°12'1812.1
2018-Feb-18 06:03N 34°55' W 121°57'113.8
2018-Feb-18 06:00N 34°55' W 121°57'713.4
2018-Feb-18 05:30N 34°49' W 121°52'713.8
2018-Feb-18 05:01N 34°44' W 121°47'714.0
2018-Feb-18 04:31N 34°39' W 121°41'714.0
2018-Feb-18 04:01N 34°34' W 121°35'714.0
2018-Feb-18 03:30N 34°30' W 121°28'713.3
2018-Feb-18 03:00N 34°24' W 121°24'713.5
2018-Feb-18 02:30N 34°17' W 121°21'714.1
2018-Feb-18 02:00N 34°12' W 121°16'814.0
2018-Feb-18 01:28N 34°06' W 121°10'714.1
2018-Feb-18 01:00N 34°01' W 121°05'814.2
2018-Feb-18 00:28N 33°55' W 120°60'614.1
2018-Feb-18 00:00N 33°50' W 120°55'714.2
2018-Feb-17 23:30N 33°44' W 120°50'714.4
2018-Feb-17 23:00N 33°38' W 120°45'714.2
2018-Feb-17 22:30N 33°33' W 120°39'713.5
2018-Feb-17 22:00N 33°31' W 120°31'713.9
2018-Feb-17 21:30N 33°32' W 120°23'814.4
2018-Feb-17 20:59N 33°34' W 120°14'714.6
2018-Feb-17 20:30N 33°35' W 120°06'715.0
2018-Feb-17 20:00N 33°36' W 119°57'815.0
2018-Feb-17 19:30N 33°37' W 119°48'815.8
2018-Feb-17 19:00N 33°38' W 119°38'815.4
2018-Feb-17 18:29N 33°40' W 119°29'915.2
2018-Feb-17 17:52N 33°41' W 119°18'614.5
2018-Feb-17 17:29N 33°42' W 119°11'612.6
2018-Feb-17 17:00N 33°43' W 119°04'611.6
2018-Feb-17 16:30N 33°44' W 118°57'611.5
2018-Feb-17 16:00N 33°45' W 118°50'611.3
2018-Feb-17 15:30N 33°45' W 118°44'611.2
2018-Feb-17 15:00N 33°50' W 118°39'611.5
2018-Feb-17 14:30N 33°53' W 118°34'5 9.2
2018-Feb-17 13:58N 33°54' W 118°28'1 0.0
2018-Feb-16 20:45N 33°54' W 118°27'0 0.2
2018-Feb-16 20:30N 33°54' W 118°27'1 1.7
2018-Feb-16 19:57N 33°53' W 118°28'2 2.4
2018-Feb-16 19:04N 33°52' W 118°30'0 0.3
2018-Feb-16 18:55N 33°52' W 118°30'0 0.1
2018-Feb-16 18:26N 33°52' W 118°30'0 0.2
2018-Feb-16 17:59N 33°52' W 118°30'2 3.8
2018-Feb-16 17:28N 33°50' W 118°31'4 8.0
2018-Feb-16 17:00N 33°47' W 118°32'2 4.2
2018-Feb-16 16:30N 33°45' W 118°31'4 7.4
2018-Feb-16 15:59N 33°42' W 118°28'4 8.3
2018-Feb-16 15:29N 33°40' W 118°24'4 7.7
2018-Feb-16 15:00N 33°38' W 118°20'510.5
2018-Feb-16 14:30N 33°38' W 118°13'4 7.8
2018-Feb-16 14:00N 33°42' W 118°11'2 4.1
2018-Feb-16 13:30N 33°44' W 118°12'0 0.2
2018-Feb-16 13:00N 33°44' W 118°12'0 0.1
2018-Feb-16 12:26N 33°44' W 118°12'0 0.0
2018-Feb-16 11:59N 33°44' W 118°12'0 0.0
2018-Feb-16 11:17N 33°44' W 118°12'0 0.0
2018-Feb-16 10:59N 33°44' W 118°12'0 0.0
2018-Feb-16 10:26N 33°44' W 118°12'0 0.0
2018-Feb-16 09:59N 33°44' W 118°12'0 0.0
2018-Feb-16 09:23N 33°44' W 118°12'0 0.1
2018-Feb-16 08:56N 33°44' W 118°12'0 0.1
2018-Feb-16 08:29N 33°44' W 118°12'0 0.0
2018-Feb-16 07:56N 33°44' W 118°12'0 0.0
2018-Feb-16 07:29N 33°44' W 118°12'0 0.1
2018-Feb-16 06:59N 33°44' W 118°12'0 0.0
2018-Feb-16 06:29N 33°44' W 118°12'0 0.1
2018-Feb-16 05:59N 33°44' W 118°12'0 0.0
2018-Feb-16 05:26N 33°44' W 118°12'0 0.0
2018-Feb-16 04:53N 33°44' W 118°12'0 0.1
2018-Feb-16 04:29N 33°44' W 118°12'0 0.0
2018-Feb-16 03:56N 33°44' W 118°12'0 0.0
2018-Feb-16 03:29N 33°44' W 118°12'0 0.0
2018-Feb-16 02:56N 33°44' W 118°12'0 0.0
2018-Feb-16 02:29N 33°44' W 118°12'0 0.1
2018-Feb-16 01:59N 33°44' W 118°12'0 0.1
2018-Feb-16 01:29N 33°44' W 118°12'0 0.1
2018-Feb-16 00:59N 33°44' W 118°12'0 0.0
2018-Feb-16 00:29N 33°44' W 118°12'0 0.0
2018-Feb-15 23:59N 33°44' W 118°12'0 0.0
2018-Feb-15 23:29N 33°44' W 118°12'0 0.0
2018-Feb-15 22:59N 33°44' W 118°12'0 0.1
2018-Feb-15 22:29N 33°44' W 118°12'0 0.0
2018-Feb-15 21:59N 33°44' W 118°12'0 0.0
2018-Feb-15 21:29N 33°44' W 118°12'0 0.0
2018-Feb-15 20:59N 33°44' W 118°12'0 0.0
2018-Feb-15 20:29N 33°44' W 118°12'0 0.1
2018-Feb-15 20:00N 33°44' W 118°12'1 2.9
2018-Feb-15 19:30N 33°43' W 118°11'3 5.8
2018-Feb-15 19:00N 33°40' W 118°11'611.0
2018-Feb-15 18:30N 33°34' W 118°09'611.8
2018-Feb-15 18:00N 33°29' W 118°07'1311.9
2018-Feb-15 16:56N 33°17' W 118°01'611.8
2018-Feb-15 16:28N 33°12' W 117°57'511.1
2018-Feb-15 15:59N 33°08' W 117°54'2 3.0
2018-Feb-15 15:28N 33°07' W 117°52'0 0.5
2018-Feb-15 15:00N 33°07' W 117°52'1 1.4
2018-Feb-15 14:30N 33°06' W 117°52'1 1.3
2018-Feb-15 14:00N 33°06' W 117°51'0 0.7
2018-Feb-15 13:30N 33°05' W 117°51'0 0.9
2018-Feb-15 13:00N 33°05' W 117°51'0 0.9
2018-Feb-15 12:30N 33°04' W 117°51'0 1.0
2018-Feb-15 11:59N 33°04' W 117°51'1 1.0
2018-Feb-15 11:30N 33°04' W 117°50'1 1.1
2018-Feb-15 11:00N 33°03' W 117°50'1 1.2
2018-Feb-15 10:30N 33°02' W 117°50'1 1.4
2018-Feb-15 10:00N 33°02' W 117°50'1 1.4
2018-Feb-15 09:31N 33°01' W 117°50'1 1.3
2018-Feb-15 09:00N 33°01' W 117°49'1 1.1
2018-Feb-15 08:30N 33°00' W 117°49'1 1.2
2018-Feb-15 08:01N 32°59' W 117°49'1 1.1
2018-Feb-15 07:30N 32°59' W 117°48'0 1.0
2018-Feb-15 07:00N 32°59' W 117°48'1 1.0
2018-Feb-15 06:30N 32°58' W 117°48'1 1.0
2018-Feb-15 06:00N 32°58' W 117°48'1 1.1
2018-Feb-15 05:29N 32°57' W 117°47'0 1.0
2018-Feb-15 05:00N 32°57' W 117°47'0 0.9
2018-Feb-15 04:30N 32°56' W 117°47'1 1.1
2018-Feb-15 04:00N 32°56' W 117°47'1 1.4
2018-Feb-15 03:29N 32°55' W 117°46'1 1.5
2018-Feb-15 03:00N 32°54' W 117°46'1 1.5
2018-Feb-15 02:31N 32°54' W 117°46'1 1.4
2018-Feb-15 02:00N 32°53' W 117°45'1 1.4
2018-Feb-15 01:31N 32°52' W 117°45'1 1.2
2018-Feb-15 01:00N 32°52' W 117°45'1 1.3
2018-Feb-15 00:30N 32°51' W 117°45'0 0.9
2018-Feb-15 00:00N 32°51' W 117°44'1 1.4
2018-Feb-14 23:30N 32°51' W 117°45'1 1.4
2018-Feb-14 23:00N 32°51' W 117°46'1 1.1
2018-Feb-14 22:30N 32°52' W 117°46'1 1.1
2018-Feb-14 22:00N 32°52' W 117°47'1 1.2
2018-Feb-14 21:31N 32°53' W 117°47'1 1.4
2018-Feb-14 21:00N 32°53' W 117°48'1 1.3
2018-Feb-14 20:30N 32°54' W 117°48'1 1.3
2018-Feb-14 20:00N 32°54' W 117°49'1 1.3
2018-Feb-14 19:30N 32°55' W 117°49'1 1.3
2018-Feb-14 19:00N 32°56' W 117°49'1 1.2
2018-Feb-14 18:30N 32°56' W 117°50'1 1.1
2018-Feb-14 18:00N 32°57' W 117°50'1 1.1
2018-Feb-14 17:31N 32°57' W 117°50'1 1.1
2018-Feb-14 17:01N 32°58' W 117°50'1 1.1
2018-Feb-14 16:29N 32°58' W 117°50'1 1.1
2018-Feb-14 16:00N 32°59' W 117°51'1 1.0
2018-Feb-14 15:30N 32°59' W 117°51'1 1.2
2018-Feb-14 15:00N 32°60' W 117°51'1 2.1
2018-Feb-14 14:30N 33°01' W 117°52'2 3.0
2018-Feb-14 14:00N 33°02' W 117°52'2 4.4
2018-Feb-14 13:31N 33°04' W 117°54'3 5.1
2018-Feb-14 13:00N 33°06' W 117°55'2 4.7
2018-Feb-14 12:30N 33°08' W 117°57'3 6.5
2018-Feb-14 12:00N 33°11' W 117°59'0 0.6
2018-Feb-14 11:30N 33°11' W 117°60'0 0.9
2018-Feb-14 11:00N 33°11' W 117°60'5 9.7
2018-Feb-14 10:30N 33°11' W 118°05'5 9.7
2018-Feb-14 10:00N 33°11' W 118°11'3710.9
2018-Feb-14 06:36N 33°15' W 118°55'913.2
2018-Feb-14 05:57N 33°15' W 119°06'614.0
2018-Feb-14 05:31N 33°18' W 119°12'1215.6
2018-Feb-14 04:43N 33°28' W 119°22'316.0
2018-Feb-14 04:30N 33°30' W 119°25'815.7
2018-Feb-14 04:00N 33°34' W 119°33'815.8
2018-Feb-14 03:31N 33°35' W 119°42'815.5
2018-Feb-14 03:01N 33°36' W 119°51'815.1
2018-Feb-14 02:30N 33°37' W 120°00'815.2
2018-Feb-14 02:00N 33°38' W 120°09'714.6
2018-Feb-14 01:29N 33°40' W 120°18'715.0
2018-Feb-14 01:00N 33°43' W 120°26'815.4
2018-Feb-14 00:31N 33°47' W 120°34'815.1
2018-Feb-14 00:00N 33°51' W 120°42'715.0
2018-Feb-13 23:31N 33°55' W 120°49'714.9
2018-Feb-13 23:00N 34°01' W 120°54'714.7
2018-Feb-13 22:31N 34°08' W 120°58'714.7
2018-Feb-13 22:00N 34°14' W 121°03'815.1
2018-Feb-13 21:31N 34°21' W 121°07'815.3
2018-Feb-13 21:01N 34°27' W 121°12'18015.4
2018-Feb-13 09:18N 37°06' W 122°57'514.8
2018-Feb-13 08:59N 37°10' W 122°59'815.7
2018-Feb-13 08:28N 37°18' W 123°02'715.6
2018-Feb-13 08:00N 37°25' W 123°05'715.1
2018-Feb-13 07:31N 37°32' W 123°05'713.3
2018-Feb-13 07:01N 37°37' W 122°59'714.5
2018-Feb-13 06:30N 37°41' W 122°51'714.0
2018-Feb-13 06:00N 37°45' W 122°44'5 9.4
2018-Feb-13 05:30N 37°46' W 122°38'611.7
2018-Feb-13 05:00N 37°48' W 122°31'510.6
2018-Feb-13 04:30N 37°51' W 122°25'4 8.4
2018-Feb-13 04:00N 37°55' W 122°25'1 1.9
2018-Feb-13 03:30N 37°56' W 122°25'0 0.0
2018-Feb-13 02:57N 37°56' W 122°25'0 0.0
2018-Feb-13 02:30N 37°56' W 122°25'0 0.0
2018-Feb-13 02:00N 37°56' W 122°25'0 0.0
2018-Feb-13 01:30N 37°56' W 122°25'0 0.0
2018-Feb-13 01:00N 37°56' W 122°25'0 0.0
2018-Feb-13 00:30N 37°56' W 122°25'0 0.0
2018-Feb-13 00:00N 37°56' W 122°25'0 0.0
2018-Feb-12 23:30N 37°56' W 122°25'0 0.0
2018-Feb-12 23:00N 37°56' W 122°25'0 0.0
2018-Feb-12 22:30N 37°56' W 122°25'0 0.0
2018-Feb-12 22:00N 37°56' W 122°25'0 0.0
2018-Feb-12 21:30N 37°56' W 122°25'0 0.0
2018-Feb-12 21:00N 37°56' W 122°25'0 0.0
2018-Feb-12 20:30N 37°56' W 122°25'0 0.0
2018-Feb-12 20:00N 37°56' W 122°25'0 0.0
2018-Feb-12 19:30N 37°56' W 122°25'0 0.0
2018-Feb-12 18:54N 37°56' W 122°25'0 0.0
2018-Feb-12 18:30N 37°56' W 122°25'0 0.0
2018-Feb-12 17:57N 37°56' W 122°25'0 0.0
2018-Feb-12 17:30N 37°56' W 122°25'0 0.0
2018-Feb-12 17:00N 37°56' W 122°25'0 0.0
2018-Feb-12 16:30N 37°56' W 122°25'0 0.0
2018-Feb-12 16:00N 37°56' W 122°25'0 0.0
2018-Feb-12 15:18N 37°56' W 122°25'0 0.0
2018-Feb-12 15:00N 37°56' W 122°25'0 0.0
2018-Feb-12 14:27N 37°56' W 122°25'0 0.0
2018-Feb-12 14:00N 37°56' W 122°25'0 0.0
2018-Feb-12 13:30N 37°56' W 122°25'0 0.0
2018-Feb-12 13:00N 37°56' W 122°25'0 0.0
2018-Feb-12 12:30N 37°56' W 122°25'0 0.0
2018-Feb-12 12:00N 37°56' W 122°25'0 0.0
2018-Feb-12 11:30N 37°56' W 122°25'0 0.0
2018-Feb-12 11:00N 37°56' W 122°25'0 0.0
2018-Feb-12 10:30N 37°56' W 122°25'0 0.0
2018-Feb-12 10:00N 37°56' W 122°25'0 0.0
2018-Feb-12 09:30N 37°56' W 122°25'0 0.0
2018-Feb-12 09:00N 37°56' W 122°25'0 0.0
2018-Feb-12 08:30N 37°56' W 122°25'0 0.0
2018-Feb-12 08:00N 37°56' W 122°25'0 0.0
2018-Feb-12 07:30N 37°56' W 122°25'0 0.0
2018-Feb-12 07:00N 37°56' W 122°25'0 0.0
2018-Feb-12 06:27N 37°56' W 122°25'0 0.0
2018-Feb-12 06:00N 37°56' W 122°25'0 0.0
2018-Feb-12 05:30N 37°56' W 122°25'0 0.0
2018-Feb-12 05:00N 37°56' W 122°25'0 0.0
2018-Feb-12 04:27N 37°56' W 122°25'0 0.0
2018-Feb-12 04:00N 37°56' W 122°25'0 0.0
2018-Feb-12 03:30N 37°56' W 122°25'1 1.5
2018-Feb-12 03:00N 37°55' W 122°25'4 7.1
2018-Feb-12 02:30N 37°52' W 122°25'4 8.7
2018-Feb-12 02:00N 37°49' W 122°29'510.5
2018-Feb-12 01:30N 37°47' W 122°35'5 9.7
2018-Feb-12 01:00N 37°44' W 122°41'4 8.1
2018-Feb-12 00:30N 37°42' W 122°45'4 7.4
2018-Feb-12 00:00N 37°40' W 122°49'4 7.7
2018-Feb-11 23:30N 37°38' W 122°52'4 8.7
2018-Feb-11 23:00N 37°35' W 122°57'4 8.7
2018-Feb-11 22:30N 37°33' W 123°01'4 8.5
2018-Feb-11 22:00N 37°30' W 123°06'4 8.2
2018-Feb-11 21:30N 37°28' W 123°10'7 7.9
2018-Feb-11 20:36N 37°22' W 123°16'1 6.4
2018-Feb-11 20:30N 37°22' W 123°17'2 4.5
2018-Feb-11 20:00N 37°20' W 123°18'1 2.2
2018-Feb-11 19:28N 37°19' W 123°18'1 2.2
2018-Feb-11 18:52N 37°18' W 123°18'1 2.0
2018-Feb-11 18:30N 37°17' W 123°18'1 1.9
2018-Feb-11 17:49N 37°16' W 123°18'1 2.0
2018-Feb-11 17:23N 37°15' W 123°18'0 1.1
2018-Feb-11 17:00N 37°14' W 123°18'4 3.1
2018-Feb-11 15:52N 37°11' W 123°19'1 3.3
2018-Feb-11 15:30N 37°10' W 123°19'2 3.4
2018-Feb-11 15:00N 37°08' W 123°19'1 2.6
2018-Feb-11 14:30N 37°07' W 123°19'7 9.9
2018-Feb-11 13:50N 37°00' W 123°22'412.4
2018-Feb-11 13:30N 36°57' W 123°24'611.9
2018-Feb-11 13:00N 36°51' W 123°22'612.7
2018-Feb-11 12:30N 36°45' W 123°18'612.7
2018-Feb-11 12:00N 36°40' W 123°15'612.5
2018-Feb-11 11:30N 36°34' W 123°12'612.2
2018-Feb-11 11:00N 36°28' W 123°08'612.2
2018-Feb-11 10:30N 36°23' W 123°05'612.2
2018-Feb-11 10:00N 36°18' W 123°02'611.9
2018-Feb-11 09:30N 36°12' W 122°58'611.8
2018-Feb-11 09:01N 36°07' W 122°55'612.0
2018-Feb-11 08:30N 36°01' W 122°52'612.0
2018-Feb-11 08:00N 35°56' W 122°49'611.9
2018-Feb-11 07:30N 35°51' W 122°45'2111.5
2018-Feb-11 05:41N 35°32' W 122°34'511.1
2018-Feb-11 05:12N 35°27' W 122°31'310.8
2018-Feb-11 04:58N 35°25' W 122°29'511.2
2018-Feb-11 04:29N 35°20' W 122°26'510.9
2018-Feb-11 04:00N 35°16' W 122°22'611.5
2018-Feb-11 03:30N 35°11' W 122°18'711.3
2018-Feb-11 02:54N 35°06' W 122°14'511.7
2018-Feb-11 02:29N 35°02' W 122°10'611.7
2018-Feb-11 01:59N 34°57' W 122°06'611.7
2018-Feb-11 01:30N 34°52' W 122°02'612.3
2018-Feb-11 00:58N 34°47' W 121°57'712.6
2018-Feb-11 00:24N 34°42' W 121°52'512.7
2018-Feb-11 00:00N 34°38' W 121°48'612.4
2018-Feb-10 23:30N 34°33' W 121°43'612.3
2018-Feb-10 23:00N 34°28' W 121°38'612.3
2018-Feb-10 22:31N 34°24' W 121°33'612.2
2018-Feb-10 22:00N 34°19' W 121°29'612.4
2018-Feb-10 21:30N 34°14' W 121°24'713.0
2018-Feb-10 20:58N 34°09' W 121°18'613.3
2018-Feb-10 20:30N 34°05' W 121°12'713.5
2018-Feb-10 20:00N 34°02' W 121°05'713.8
2018-Feb-10 19:30N 33°58' W 120°58'713.8
2018-Feb-10 19:01N 33°55' W 120°51'713.8
2018-Feb-10 18:30N 33°51' W 120°44'713.8
2018-Feb-10 18:00N 33°47' W 120°37'714.1
2018-Feb-10 17:30N 33°43' W 120°30'714.5
2018-Feb-10 17:01N 33°40' W 120°22'814.9
2018-Feb-10 16:28N 33°38' W 120°13'715.2
2018-Feb-10 16:01N 33°36' W 120°05'815.1
2018-Feb-10 15:30N 33°35' W 119°56'815.4
2018-Feb-10 15:00N 33°35' W 119°47'715.0
2018-Feb-10 14:31N 33°35' W 119°38'714.6
2018-Feb-10 14:00N 33°32' W 119°30'715.1
2018-Feb-10 13:31N 33°28' W 119°22'815.3
2018-Feb-10 13:00N 33°22' W 119°16'815.4
2018-Feb-10 12:29N 33°16' W 119°10'713.8
2018-Feb-10 12:01N 33°14' W 119°02'913.9
2018-Feb-10 11:22N 33°14' W 118°52'411.6
2018-Feb-10 10:59N 33°14' W 118°46'611.6
2018-Feb-10 10:30N 33°13' W 118°40'611.7
2018-Feb-10 10:00N 33°11' W 118°33'611.6
2018-Feb-10 09:29N 33°08' W 118°27'611.6
2018-Feb-10 08:59N 33°06' W 118°21'911.4
2018-Feb-10 08:11N 33°06' W 118°10'311.5
2018-Feb-10 07:55N 33°06' W 118°06'511.7
2018-Feb-10 07:30N 33°06' W 118°00'5 9.1
2018-Feb-10 06:59N 33°06' W 117°55'4 8.0
2018-Feb-10 06:29N 33°07' W 117°50'0 0.6
2018-Feb-10 06:00N 33°07' W 117°50'0 0.9
2018-Feb-10 05:31N 33°07' W 117°51'1 1.2
2018-Feb-10 05:00N 33°06' W 117°50'0 0.9
2018-Feb-10 04:30N 33°06' W 117°50'1 1.1
2018-Feb-10 04:00N 33°05' W 117°50'1 1.2
2018-Feb-10 03:29N 33°05' W 117°49'1 1.2
2018-Feb-10 03:00N 33°04' W 117°49'1 1.3
2018-Feb-10 02:30N 33°04' W 117°48'1 1.5
2018-Feb-10 02:00N 33°03' W 117°48'1 1.9
2018-Feb-10 01:30N 33°02' W 117°47'1 1.9
2018-Feb-10 01:00N 33°01' W 117°47'1 1.0
2018-Feb-10 00:30N 33°01' W 117°46'1 1.1
2018-Feb-10 00:00N 33°01' W 117°46'1 1.2
2018-Feb-09 23:30N 33°00' W 117°45'1 1.0
2018-Feb-09 23:00N 32°60' W 117°45'0 1.1
2018-Feb-09 22:46N 32°60' W 117°45'1 0.9
2018-Feb-09 21:30N 32°59' W 117°44'2 1.0
2018-Feb-09 19:30N 32°57' W 117°42'3 1.3
2018-Feb-09 17:30N 32°57' W 117°45'1 1.0
2018-Feb-09 16:30N 32°57' W 117°47'1 1.4
2018-Feb-09 16:00N 32°57' W 117°47'2 1.3
2018-Feb-09 14:30N 32°57' W 117°50'1 0.7
2018-Feb-09 13:01N 32°58' W 117°51'1 0.7
2018-Feb-09 11:00N 32°59' W 117°51'4 2.2
2018-Feb-09 09:00N 33°03' W 117°53'2 4.8
2018-Feb-09 08:30N 33°05' W 117°55'2 4.8
2018-Feb-09 08:00N 33°07' W 117°56'3 5.4
2018-Feb-09 07:30N 33°10' W 117°58'2 4.8
2018-Feb-09 07:00N 33°12' W 117°59'0 0.3
2018-Feb-09 06:30N 33°12' W 117°60'0 0.5
2018-Feb-09 06:00N 33°11' W 117°60'0 0.2
2018-Feb-09 05:30N 33°11' W 117°60'5 4.6
2018-Feb-09 04:30N 33°11' W 118°05'611.8
2018-Feb-09 04:00N 33°11' W 118°12'611.8
2018-Feb-09 03:30N 33°11' W 118°19'1811.7
2018-Feb-09 02:00N 33°12' W 118°40'611.8
2018-Feb-09 01:30N 33°13' W 118°47'611.4
2018-Feb-09 01:00N 33°14' W 118°54'611.0
2018-Feb-09 00:30N 33°15' W 119°00'815.3
2018-Feb-09 00:00N 33°16' W 119°09'815.8
2018-Feb-08 23:30N 33°22' W 119°15'5315.1
2018-Feb-08 20:00N 33°37' W 120°16'2416.1
2018-Feb-08 18:30N 33°51' W 120°40'1515.5
2018-Feb-08 17:30N 34°01' W 120°53'4116.2
2018-Feb-08 15:00N 34°36' W 121°19'  

Dump ship's entire track history